createdAt,value
2023-05-09T00:04:57.773Z,15.91
2023-05-09T00:10:02.023Z,15.93
2023-05-09T00:15:08.161Z,15.90
2023-05-09T00:20:12.503Z,15.94
2023-05-09T00:25:17.126Z,16.00
2023-05-09T00:30:22.265Z,16.07
2023-05-09T00:35:25.305Z,16.11
2023-05-09T00:40:53.029Z,16.09
2023-05-09T00:45:56.328Z,16.08
2023-05-09T00:51:00.038Z,16.11
2023-05-09T00:56:06.940Z,16.13
2023-05-09T01:01:10.285Z,16.18
2023-05-09T01:06:18.914Z,16.17
2023-05-09T01:11:30.711Z,16.22
2023-05-09T01:16:38.104Z,16.27
2023-05-09T01:21:42.049Z,16.28
2023-05-09T01:26:59.565Z,16.28
2023-05-09T01:32:06.206Z,16.32
2023-05-09T01:37:10.848Z,16.32
2023-05-09T01:42:14.312Z,16.38
2023-05-09T01:47:19.482Z,16.33
2023-05-09T01:52:23.085Z,16.33
2023-05-09T01:57:25.972Z,16.33
2023-05-09T02:02:30.389Z,16.31
2023-05-09T02:07:33.564Z,16.32
2023-05-09T02:12:36.478Z,16.31
2023-05-09T02:17:40.716Z,16.37
2023-05-09T02:22:45.041Z,16.32
2023-05-09T02:27:48.053Z,16.37
2023-05-09T02:32:54.917Z,16.34
2023-05-09T02:38:00.708Z,16.37
2023-05-09T02:43:05.049Z,16.40
2023-05-09T02:48:09.857Z,16.38
2023-05-09T02:53:12.949Z,16.36
2023-05-09T02:58:17.493Z,16.35
2023-05-09T03:03:23.362Z,16.32
2023-05-09T03:08:27.712Z,16.34
2023-05-09T03:13:31.102Z,16.34
2023-05-09T03:18:36.318Z,16.30
2023-05-09T03:23:39.836Z,16.20
2023-05-09T03:28:42.675Z,16.28
2023-05-09T03:33:47.033Z,16.25
2023-05-09T03:38:51.045Z,16.16
2023-05-09T03:43:56.775Z,16.19
2023-05-09T03:49:01.040Z,16.23
2023-05-09T03:54:06.020Z,16.30
2023-05-09T03:59:09.024Z,16.33
2023-05-09T04:04:13.584Z,16.28
2023-05-09T04:09:16.989Z,16.29
2023-05-09T04:14:21.777Z,16.32
2023-05-09T04:19:26.038Z,16.35
2023-05-09T04:24:28.913Z,16.31
2023-05-09T04:29:32.337Z,16.33
2023-05-09T04:34:36.949Z,16.34
2023-05-09T04:39:47.774Z,16.33
2023-05-09T04:44:59.819Z,16.37
2023-05-09T04:50:06.679Z,16.35
2023-05-09T04:55:10.320Z,16.44
2023-05-09T05:00:18.601Z,16.44
2023-05-09T05:05:25.772Z,16.44
2023-05-09T05:10:31.374Z,16.50
2023-05-09T05:15:42.980Z,16.47
2023-05-09T05:20:48.074Z,16.44
2023-05-09T05:25:50.896Z,16.47
2023-05-09T05:30:53.850Z,16.51
2023-05-09T05:35:58.013Z,16.52
2023-05-09T05:41:00.992Z,16.65
2023-05-09T05:46:06.455Z,16.74
2023-05-09T05:51:11.995Z,16.52
2023-05-09T05:56:17.330Z,16.47
2023-05-09T06:01:20.523Z,16.44
2023-05-09T06:06:24.807Z,16.45
2023-05-09T06:11:27.761Z,16.54
2023-05-09T06:16:30.763Z,16.54
2023-05-09T06:21:35.208Z,16.45
2023-05-09T06:26:38.507Z,16.38
2023-05-09T06:31:41.428Z,16.31
2023-05-09T06:36:45.617Z,16.33
2023-05-09T06:41:48.425Z,16.31
2023-05-09T06:46:59.996Z,16.31
2023-05-09T06:52:04.253Z,16.27
2023-05-09T06:57:07.079Z,16.24
2023-05-09T07:02:09.883Z,16.19
2023-05-09T07:07:13.941Z,16.15
2023-05-09T07:12:16.952Z,16.15
2023-05-09T07:17:23.558Z,16.20
2023-05-09T07:22:30.683Z,16.09
2023-05-09T07:27:34.494Z,16.10
2023-05-09T07:32:37.420Z,16.02
2023-05-09T07:37:41.648Z,16.20
2023-05-09T07:42:49.374Z,16.27
2023-05-09T07:47:52.394Z,16.38
2023-05-09T07:52:56.723Z,16.58
2023-05-09T07:57:59.513Z,16.49
2023-05-09T08:03:02.342Z,16.59
2023-05-09T08:08:07.880Z,16.52
2023-05-09T08:13:10.779Z,16.48
2023-05-09T08:18:13.594Z,16.57
2023-05-09T08:23:17.682Z,16.58
2023-05-09T08:28:22.033Z,16.66
2023-05-09T08:33:25.839Z,16.33
2023-05-09T08:38:30.211Z,16.52
2023-05-09T08:43:34.684Z,16.45
2023-05-09T08:48:38.600Z,16.35
2023-05-09T08:53:44.116Z,16.37
2023-05-09T08:58:47.091Z,16.43
2023-05-09T09:03:50.232Z,16.30
2023-05-09T09:08:56.114Z,16.27
2023-05-09T09:14:02.884Z,16.27
2023-05-09T09:19:06.696Z,16.38
2023-05-09T09:24:12.879Z,16.41
2023-05-09T09:29:16.868Z,16.51
2023-05-09T09:34:22.371Z,16.50
2023-05-09T09:39:26.593Z,16.42
2023-05-09T09:44:31.050Z,16.45
2023-05-09T09:49:33.869Z,16.57
2023-05-09T09:54:39.717Z,16.44
2023-05-09T09:59:42.593Z,16.26
2023-05-09T10:04:45.609Z,16.49
2023-05-09T10:09:49.882Z,16.38
2023-05-09T10:14:52.877Z,16.38
2023-05-09T10:19:56.542Z,16.44
2023-05-09T10:25:04.406Z,16.29
2023-05-09T10:30:10.424Z,16.48
2023-05-09T10:35:17.117Z,16.28
2023-05-09T10:40:21.609Z,16.49
2023-05-09T10:45:24.768Z,16.40
2023-05-09T10:50:27.666Z,16.38
2023-05-09T10:55:39.174Z,16.11
2023-05-09T11:00:42.547Z,16.13
2023-05-09T11:05:45.319Z,16.38
2023-05-09T11:10:49.746Z,16.49
2023-05-09T11:16:06.364Z,16.52
2023-05-09T11:21:09.852Z,16.44
2023-05-09T11:26:15.959Z,16.28
2023-05-09T11:31:19.970Z,16.40
2023-05-09T11:36:25.595Z,16.48
2023-05-09T11:41:30.292Z,16.40
2023-05-09T11:46:33.178Z,16.41
2023-05-09T11:51:37.356Z,16.34
2023-05-09T11:56:42.031Z,16.42
2023-05-09T12:01:44.936Z,16.42
2023-05-09T12:06:48.606Z,16.67
2023-05-09T12:11:53.004Z,16.37
2023-05-09T12:16:55.865Z,16.57
2023-05-09T12:21:59.167Z,16.62
2023-05-09T12:27:03.513Z,16.97
2023-05-09T12:32:07.003Z,16.93
2023-05-09T12:37:16.010Z,16.88
2023-05-09T12:42:20.237Z,16.79
2023-05-09T12:47:23.205Z,16.73
2023-05-09T12:52:26.912Z,16.72
2023-05-09T12:57:31.632Z,16.58
2023-05-09T13:02:38.776Z,16.63
2023-05-09T13:07:42.382Z,16.56
2023-05-09T13:12:48.264Z,16.55
2023-05-09T13:17:52.103Z,16.64
2023-05-09T13:22:55.019Z,16.66
2023-05-09T13:27:59.208Z,16.80
2023-05-09T13:33:16.562Z,16.90
2023-05-09T13:38:25.571Z,16.89
2023-05-09T13:43:29.813Z,16.63
2023-05-09T13:48:32.605Z,16.43
2023-05-09T13:53:37.363Z,16.48
2023-05-09T13:58:42.981Z,16.70
2023-05-09T14:03:47.231Z,16.87
2023-05-09T14:08:50.190Z,16.91
2023-05-09T14:13:54.562Z,17.06
2023-05-09T14:18:57.660Z,16.87
2023-05-09T14:24:00.605Z,16.74
2023-05-09T14:29:06.119Z,16.77
2023-05-09T14:34:09.311Z,16.73
2023-05-09T14:39:12.552Z,16.95
2023-05-09T14:44:16.683Z,16.93
2023-05-09T14:49:19.445Z,16.92
2023-05-09T14:54:22.326Z,16.94
2023-05-09T14:59:26.574Z,17.01
2023-05-09T15:04:31.014Z,16.87
2023-05-09T15:09:34.179Z,17.07
2023-05-09T15:14:39.522Z,17.19
2023-05-09T15:19:42.513Z,17.05
2023-05-09T15:24:45.309Z,16.87
2023-05-09T15:29:49.464Z,16.65
2023-05-09T15:34:52.336Z,16.41
2023-05-09T15:39:55.170Z,16.30
2023-05-09T15:44:59.374Z,16.40
2023-05-09T15:50:02.281Z,16.55
2023-05-09T15:55:05.728Z,16.81
2023-05-09T16:00:11.317Z,16.87
2023-05-09T16:05:17.108Z,16.66
2023-05-09T16:10:20.012Z,16.42
2023-05-09T16:15:24.587Z,16.33
2023-05-09T16:20:27.460Z,15.90
2023-05-09T16:25:30.793Z,15.75
2023-05-09T16:30:36.281Z,15.59
2023-05-09T16:35:40.036Z,15.67
2023-05-09T16:40:42.852Z,15.54
2023-05-09T16:45:47.911Z,15.53
2023-05-09T16:50:53.631Z,15.76
2023-05-09T16:55:56.918Z,15.48
2023-05-09T17:01:02.229Z,15.64
2023-05-09T17:06:05.397Z,15.55
2023-05-09T17:11:10.033Z,15.44
2023-05-09T17:16:14.317Z,15.44
2023-05-09T17:21:18.064Z,15.69
2023-05-09T17:26:21.299Z,15.60
2023-05-09T17:31:25.558Z,15.41
2023-05-09T17:36:30.079Z,15.45
2023-05-09T17:41:32.965Z,15.38
2023-05-09T17:46:37.279Z,15.47
2023-05-09T17:51:40.090Z,15.39
2023-05-09T17:56:42.910Z,15.45
2023-05-09T18:01:47.170Z,15.48
2023-05-09T18:06:50.443Z,15.54
2023-05-09T18:11:53.523Z,15.37
2023-05-09T18:16:57.689Z,15.39
2023-05-09T18:22:00.540Z,15.43
2023-05-09T18:27:04.281Z,15.31
2023-05-09T18:32:08.522Z,14.95
2023-05-09T18:37:11.570Z,15.06
2023-05-09T18:42:16.357Z,14.90
2023-05-09T18:47:20.754Z,15.00
2023-05-09T18:52:23.535Z,15.02
2023-05-09T18:57:26.586Z,15.00
2023-05-09T19:02:31.048Z,14.89
2023-05-09T19:07:34.342Z,14.94
2023-05-09T19:12:37.505Z,14.84
2023-05-09T19:17:41.713Z,14.73
2023-05-09T19:22:48.132Z,14.66
2023-05-09T19:27:52.606Z,14.68
2023-05-09T19:32:56.784Z,14.68
2023-05-09T19:37:59.631Z,14.68
2023-05-09T19:43:02.408Z,14.61
2023-05-09T19:48:07.096Z,14.61
2023-05-09T19:53:10.396Z,14.69
2023-05-09T19:58:14.003Z,14.67
2023-05-09T20:03:19.133Z,14.66
2023-05-09T20:08:22.101Z,14.79
2023-05-09T20:13:25.047Z,14.74
2023-05-09T20:18:29.480Z,14.68
2023-05-09T20:23:32.472Z,14.67
2023-05-09T20:28:35.478Z,14.69
2023-05-09T20:33:40.880Z,14.71
2023-05-09T20:38:43.851Z,14.60
2023-05-09T20:43:47.137Z,14.59
2023-05-09T20:48:51.654Z,14.51
2023-05-09T20:53:54.574Z,14.47
2023-05-09T20:58:59.834Z,14.46
2023-05-09T21:04:05.709Z,14.48
2023-05-09T21:09:09.018Z,14.56
2023-05-09T21:14:11.934Z,14.45
2023-05-09T21:19:16.281Z,14.50
2023-05-09T21:24:19.262Z,14.50
2023-05-09T21:29:22.348Z,14.43
2023-05-09T21:34:26.750Z,14.38
2023-05-09T21:39:30.393Z,14.44
2023-05-09T21:44:34.330Z,14.39
2023-05-09T21:49:38.717Z,14.35
2023-05-09T21:54:41.650Z,14.35
2023-05-09T21:59:45.253Z,14.40
2023-05-09T22:04:49.417Z,14.45
2023-05-09T22:09:52.913Z,14.42
2023-05-09T22:14:56.902Z,14.37
2023-05-09T22:20:02.279Z,14.40
2023-05-09T22:25:05.537Z,14.33
2023-05-09T22:30:12.292Z,14.42
2023-05-09T22:35:16.661Z,14.46
2023-05-09T22:40:19.491Z,14.48
2023-05-09T22:45:22.392Z,14.51
2023-05-09T22:50:26.739Z,14.57
2023-05-09T22:55:29.735Z,14.60
2023-05-09T23:00:32.621Z,14.57
2023-05-09T23:05:36.986Z,14.57
2023-05-09T23:10:39.741Z,14.56
2023-05-09T23:15:42.563Z,14.55
2023-05-09T23:20:47.084Z,14.57
2023-05-09T23:25:49.901Z,14.53
2023-05-09T23:30:52.869Z,14.56
2023-05-09T23:35:57.575Z,14.59
2023-05-09T23:41:01.272Z,14.63
2023-05-09T23:46:04.318Z,14.66
2023-05-09T23:51:08.654Z,14.68
2023-05-09T23:56:11.524Z,14.68
